sensor_id;sensor_type;location;lat;lon;timestamp;P1;durP1;ratioP1;P2;durP2;ratioP2
81242;SDS011;70716;50.074;14.496;2023-12-20T00:02:22;1.17;;;0.70;;
81242;SDS011;70716;50.074;14.496;2023-12-20T00:04:48;1.08;;;0.82;;
81242;SDS011;70716;50.074;14.496;2023-12-20T00:07:13;1.88;;;1.15;;
81242;SDS011;70716;50.074;14.496;2023-12-20T00:09:39;2.20;;;1.17;;
81242;SDS011;70716;50.074;14.496;2023-12-20T00:12:04;0.77;;;0.52;;
81242;SDS011;70716;50.074;14.496;2023-12-20T00:14:30;1.50;;;0.75;;
81242;SDS011;70716;50.074;14.496;2023-12-20T00:16:55;2.78;;;1.25;;
81242;SDS011;70716;50.074;14.496;2023-12-20T00:19:21;1.67;;;0.82;;
81242;SDS011;70716;50.074;14.496;2023-12-20T00:21:46;0.95;;;0.82;;
81242;SDS011;70716;50.074;14.496;2023-12-20T00:24:12;3.10;;;1.08;;
81242;SDS011;70716;50.074;14.496;2023-12-20T00:26:37;0.93;;;0.52;;
81242;SDS011;70716;50.074;14.496;2023-12-20T00:29:02;2.45;;;1.15;;
81242;SDS011;70716;50.074;14.496;2023-12-20T00:31:28;1.05;;;0.68;;
81242;SDS011;70716;50.074;14.496;2023-12-20T00:33:53;2.15;;;1.30;;
81242;SDS011;70716;50.074;14.496;2023-12-20T00:36:19;1.60;;;0.93;;
81242;SDS011;70716;50.074;14.496;2023-12-20T00:38:45;1.35;;;0.95;;
81242;SDS011;70716;50.074;14.496;2023-12-20T00:41:11;2.72;;;1.30;;
81242;SDS011;70716;50.074;14.496;2023-12-20T00:43:37;0.75;;;0.70;;
81242;SDS011;70716;50.074;14.496;2023-12-20T00:46:02;1.90;;;1.20;;
81242;SDS011;70716;50.074;14.496;2023-12-20T00:48:28;2.20;;;1.02;;
81242;SDS011;70716;50.074;14.496;2023-12-20T00:50:55;3.65;;;1.55;;
81242;SDS011;70716;50.074;14.496;2023-12-20T00:53:20;2.13;;;1.00;;
81242;SDS011;70716;50.074;14.496;2023-12-20T00:55:46;1.15;;;0.85;;
81242;SDS011;70716;50.074;14.496;2023-12-20T00:58:11;1.73;;;0.95;;
81242;SDS011;70716;50.074;14.496;2023-12-20T01:00:39;1.48;;;0.85;;
81242;SDS011;70716;50.074;14.496;2023-12-20T01:03:06;1.98;;;1.00;;
81242;SDS011;70716;50.074;14.496;2023-12-20T01:05:32;1.75;;;0.80;;
81242;SDS011;70716;50.074;14.496;2023-12-20T01:07:57;1.67;;;0.73;;
81242;SDS011;70716;50.074;14.496;2023-12-20T01:10:22;1.40;;;0.98;;
81242;SDS011;70716;50.074;14.496;2023-12-20T01:12:51;2.03;;;1.15;;
81242;SDS011;70716;50.074;14.496;2023-12-20T01:15:16;2.85;;;1.00;;
81242;SDS011;70716;50.074;14.496;2023-12-20T01:17:42;1.08;;;0.73;;
81242;SDS011;70716;50.074;14.496;2023-12-20T01:20:08;1.95;;;0.95;;
81242;SDS011;70716;50.074;14.496;2023-12-20T01:22:35;1.20;;;1.05;;
81242;SDS011;70716;50.074;14.496;2023-12-20T01:25:02;2.17;;;0.88;;
81242;SDS011;70716;50.074;14.496;2023-12-20T01:27:28;2.42;;;1.23;;
81242;SDS011;70716;50.074;14.496;2023-12-20T01:29:54;2.40;;;1.45;;
81242;SDS011;70716;50.074;14.496;2023-12-20T01:32:19;4.10;;;1.63;;
81242;SDS011;70716;50.074;14.496;2023-12-20T01:34:44;3.22;;;1.90;;
81242;SDS011;70716;50.074;14.496;2023-12-20T01:37:10;4.22;;;1.65;;
81242;SDS011;70716;50.074;14.496;2023-12-20T01:39:35;1.25;;;0.90;;
81242;SDS011;70716;50.074;14.496;2023-12-20T01:42:01;2.20;;;1.15;;
81242;SDS011;70716;50.074;14.496;2023-12-20T01:44:27;2.75;;;1.42;;
81242;SDS011;70716;50.074;14.496;2023-12-20T01:46:52;2.35;;;1.38;;
81242;SDS011;70716;50.074;14.496;2023-12-20T01:49:18;1.45;;;1.05;;
81242;SDS011;70716;50.074;14.496;2023-12-20T01:51:44;1.73;;;0.80;;
81242;SDS011;70716;50.074;14.496;2023-12-20T01:54:10;3.58;;;1.63;;
81242;SDS011;70716;50.074;14.496;2023-12-20T01:56:35;1.63;;;0.55;;
81242;SDS011;70716;50.074;14.496;2023-12-20T01:59:01;3.65;;;1.60;;
81242;SDS011;70716;50.074;14.496;2023-12-20T02:01:29;2.92;;;1.45;;
81242;SDS011;70716;50.074;14.496;2023-12-20T02:03:55;1.27;;;1.00;;
81242;SDS011;70716;50.074;14.496;2023-12-20T02:06:21;2.67;;;1.27;;
81242;SDS011;70716;50.074;14.496;2023-12-20T02:08:49;3.42;;;1.40;;
81242;SDS011;70716;50.074;14.496;2023-12-20T02:11:16;1.63;;;0.98;;
81242;SDS011;70716;50.074;14.496;2023-12-20T02:13:44;2.03;;;1.20;;
81242;SDS011;70716;50.074;14.496;2023-12-20T02:16:09;2.28;;;1.20;;
81242;SDS011;70716;50.074;14.496;2023-12-20T02:18:35;2.20;;;1.10;;
81242;SDS011;70716;50.074;14.496;2023-12-20T02:21:00;2.25;;;1.50;;
81242;SDS011;70716;50.074;14.496;2023-12-20T02:23:26;2.70;;;1.55;;
81242;SDS011;70716;50.074;14.496;2023-12-20T02:25:51;1.65;;;1.13;;
81242;SDS011;70716;50.074;14.496;2023-12-20T02:28:16;2.47;;;1.63;;
81242;SDS011;70716;50.074;14.496;2023-12-20T02:30:42;4.25;;;1.70;;
81242;SDS011;70716;50.074;14.496;2023-12-20T02:33:10;2.53;;;1.23;;
81242;SDS011;70716;50.074;14.496;2023-12-20T02:35:37;1.88;;;1.05;;
81242;SDS011;70716;50.074;14.496;2023-12-20T02:38:02;3.25;;;1.58;;
81242;SDS011;70716;50.074;14.496;2023-12-20T02:40:28;1.95;;;1.02;;
81242;SDS011;70716;50.074;14.496;2023-12-20T02:42:53;1.77;;;1.10;;
81242;SDS011;70716;50.074;14.496;2023-12-20T02:45:19;2.53;;;1.23;;
81242;SDS011;70716;50.074;14.496;2023-12-20T02:47:44;3.58;;;1.67;;
81242;SDS011;70716;50.074;14.496;2023-12-20T02:50:13;2.55;;;1.55;;
81242;SDS011;70716;50.074;14.496;2023-12-20T02:52:38;1.95;;;1.02;;
81242;SDS011;70716;50.074;14.496;2023-12-20T02:55:09;2.67;;;1.55;;
81242;SDS011;70716;50.074;14.496;2023-12-20T02:57:34;2.17;;;1.20;;
81242;SDS011;70716;50.074;14.496;2023-12-20T03:00:04;2.63;;;1.48;;
81242;SDS011;70716;50.074;14.496;2023-12-20T03:02:33;2.95;;;1.40;;
81242;SDS011;70716;50.074;14.496;2023-12-20T03:04:58;4.75;;;1.70;;
81242;SDS011;70716;50.074;14.496;2023-12-20T03:07:25;2.22;;;1.15;;
81242;SDS011;70716;50.074;14.496;2023-12-20T03:09:50;2.28;;;1.33;;
81242;SDS011;70716;50.074;14.496;2023-12-20T03:12:16;2.08;;;1.33;;
81242;SDS011;70716;50.074;14.496;2023-12-20T03:14:44;3.22;;;1.45;;
81242;SDS011;70716;50.074;14.496;2023-12-20T03:17:12;3.13;;;1.30;;
81242;SDS011;70716;50.074;14.496;2023-12-20T03:19:37;1.33;;;0.98;;
81242;SDS011;70716;50.074;14.496;2023-12-20T03:22:03;0.65;;;0.60;;
81242;SDS011;70716;50.074;14.496;2023-12-20T03:24:28;4.07;;;2.03;;
81242;SDS011;70716;50.074;14.496;2023-12-20T03:26:53;1.85;;;0.93;;
81242;SDS011;70716;50.074;14.496;2023-12-20T03:29:19;2.88;;;1.30;;
81242;SDS011;70716;50.074;14.496;2023-12-20T03:31:44;2.50;;;1.38;;
81242;SDS011;70716;50.074;14.496;2023-12-20T03:34:10;2.55;;;1.23;;
81242;SDS011;70716;50.074;14.496;2023-12-20T03:36:36;1.92;;;0.98;;
81242;SDS011;70716;50.074;14.496;2023-12-20T03:39:02;2.88;;;1.20;;
81242;SDS011;70716;50.074;14.496;2023-12-20T03:41:27;1.23;;;1.00;;
81242;SDS011;70716;50.074;14.496;2023-12-20T03:43:54;1.75;;;0.93;;
81242;SDS011;70716;50.074;14.496;2023-12-20T03:46:19;2.35;;;1.13;;
81242;SDS011;70716;50.074;14.496;2023-12-20T03:48:45;1.90;;;0.90;;
81242;SDS011;70716;50.074;14.496;2023-12-20T03:51:10;1.85;;;0.85;;
81242;SDS011;70716;50.074;14.496;2023-12-20T03:53:36;0.85;;;0.50;;
81242;SDS011;70716;50.074;14.496;2023-12-20T03:56:01;1.75;;;1.00;;
81242;SDS011;70716;50.074;14.496;2023-12-20T03:58:26;1.73;;;1.15;;
81242;SDS011;70716;50.074;14.496;2023-12-20T04:00:52;2.78;;;1.08;;
81242;SDS011;70716;50.074;14.496;2023-12-20T04:03:18;2.75;;;1.20;;
81242;SDS011;70716;50.074;14.496;2023-12-20T04:05:43;1.23;;;1.00;;
81242;SDS011;70716;50.074;14.496;2023-12-20T04:08:08;2.95;;;1.50;;
81242;SDS011;70716;50.074;14.496;2023-12-20T04:10:35;1.60;;;0.82;;
81242;SDS011;70716;50.074;14.496;2023-12-20T04:13:03;1.52;;;0.80;;
81242;SDS011;70716;50.074;14.496;2023-12-20T04:15:29;1.15;;;0.75;;
81242;SDS011;70716;50.074;14.496;2023-12-20T04:17:54;1.85;;;0.68;;
81242;SDS011;70716;50.074;14.496;2023-12-20T04:20:20;0.60;;;0.43;;
81242;SDS011;70716;50.074;14.496;2023-12-20T04:22:45;2.25;;;1.05;;
81242;SDS011;70716;50.074;14.496;2023-12-20T04:25:11;1.80;;;0.98;;
81242;SDS011;70716;50.074;14.496;2023-12-20T04:27:36;1.95;;;0.85;;
81242;SDS011;70716;50.074;14.496;2023-12-20T04:30:02;1.30;;;0.98;;
81242;SDS011;70716;50.074;14.496;2023-12-20T04:32:28;1.58;;;0.65;;
81242;SDS011;70716;50.074;14.496;2023-12-20T04:34:54;1.98;;;0.82;;
81242;SDS011;70716;50.074;14.496;2023-12-20T04:37:19;1.95;;;0.68;;
81242;SDS011;70716;50.074;14.496;2023-12-20T04:39:45;1.98;;;0.90;;
81242;SDS011;70716;50.074;14.496;2023-12-20T04:42:10;1.92;;;0.55;;
81242;SDS011;70716;50.074;14.496;2023-12-20T04:44:39;2.65;;;0.50;;
81242;SDS011;70716;50.074;14.496;2023-12-20T04:47:04;1.60;;;1.08;;
81242;SDS011;70716;50.074;14.496;2023-12-20T04:49:29;1.48;;;0.77;;
81242;SDS011;70716;50.074;14.496;2023-12-20T04:51:55;2.88;;;1.33;;
81242;SDS011;70716;50.074;14.496;2023-12-20T04:54:26;2.28;;;1.00;;
81242;SDS011;70716;50.074;14.496;2023-12-20T04:56:51;1.10;;;0.80;;
81242;SDS011;70716;50.074;14.496;2023-12-20T04:59:17;0.73;;;0.63;;
81242;SDS011;70716;50.074;14.496;2023-12-20T05:01:42;1.25;;;0.98;;
81242;SDS011;70716;50.074;14.496;2023-12-20T05:04:08;0.93;;;0.63;;
81242;SDS011;70716;50.074;14.496;2023-12-20T05:06:33;1.27;;;0.50;;
81242;SDS011;70716;50.074;14.496;2023-12-20T05:08:58;0.70;;;0.70;;
81242;SDS011;70716;50.074;14.496;2023-12-20T05:11:24;1.13;;;0.47;;
81242;SDS011;70716;50.074;14.496;2023-12-20T05:13:49;1.90;;;1.23;;
81242;SDS011;70716;50.074;14.496;2023-12-20T05:16:14;0.50;;;0.50;;
81242;SDS011;70716;50.074;14.496;2023-12-20T05:18:42;1.00;;;0.52;;
81242;SDS011;70716;50.074;14.496;2023-12-20T05:21:08;1.45;;;0.75;;
81242;SDS011;70716;50.074;14.496;2023-12-20T05:23:33;2.65;;;0.88;;
81242;SDS011;70716;50.074;14.496;2023-12-20T05:25:59;0.90;;;0.63;;
81242;SDS011;70716;50.074;14.496;2023-12-20T05:28:24;1.38;;;0.82;;
81242;SDS011;70716;50.074;14.496;2023-12-20T05:30:50;4.95;;;1.00;;
81242;SDS011;70716;50.074;14.496;2023-12-20T05:33:16;1.63;;;0.63;;
81242;SDS011;70716;50.074;14.496;2023-12-20T05:35:44;1.52;;;0.90;;
81242;SDS011;70716;50.074;14.496;2023-12-20T05:38:10;1.58;;;0.95;;
81242;SDS011;70716;50.074;14.496;2023-12-20T05:40:35;0.47;;;0.45;;
81242;SDS011;70716;50.074;14.496;2023-12-20T05:43:00;0.88;;;0.85;;
81242;SDS011;70716;50.074;14.496;2023-12-20T05:45:26;1.77;;;1.05;;
81242;SDS011;70716;50.074;14.496;2023-12-20T05:47:51;1.48;;;1.02;;
81242;SDS011;70716;50.074;14.496;2023-12-20T05:50:16;2.05;;;0.80;;
81242;SDS011;70716;50.074;14.496;2023-12-20T05:52:45;1.02;;;0.63;;
81242;SDS011;70716;50.074;14.496;2023-12-20T05:55:10;1.15;;;0.95;;
81242;SDS011;70716;50.074;14.496;2023-12-20T05:57:36;1.48;;;0.73;;
81242;SDS011;70716;50.074;14.496;2023-12-20T06:00:01;2.35;;;1.20;;
81242;SDS011;70716;50.074;14.496;2023-12-20T06:02:26;0.85;;;0.55;;
81242;SDS011;70716;50.074;14.496;2023-12-20T06:04:52;0.60;;;0.35;;
81242;SDS011;70716;50.074;14.496;2023-12-20T06:07:17;1.45;;;1.00;;
81242;SDS011;70716;50.074;14.496;2023-12-20T06:09:43;0.70;;;0.25;;
81242;SDS011;70716;50.074;14.496;2023-12-20T06:12:08;0.50;;;0.50;;
81242;SDS011;70716;50.074;14.496;2023-12-20T06:14:34;1.65;;;0.80;;
81242;SDS011;70716;50.074;14.496;2023-12-20T06:17:03;1.05;;;0.60;;
81242;SDS011;70716;50.074;14.496;2023-12-20T06:19:29;0.52;;;0.43;;
81242;SDS011;70716;50.074;14.496;2023-12-20T06:21:54;1.52;;;0.70;;
81242;SDS011;70716;50.074;14.496;2023-12-20T06:24:20;1.67;;;0.73;;
81242;SDS011;70716;50.074;14.496;2023-12-20T06:26:49;0.88;;;0.75;;
81242;SDS011;70716;50.074;14.496;2023-12-20T06:29:15;2.50;;;1.48;;
81242;SDS011;70716;50.074;14.496;2023-12-20T06:31:43;0.75;;;0.50;;
81242;SDS011;70716;50.074;14.496;2023-12-20T06:34:09;0.25;;;0.25;;
81242;SDS011;70716;50.074;14.496;2023-12-20T06:36:35;1.67;;;0.63;;
81242;SDS011;70716;50.074;14.496;2023-12-20T06:39:00;2.28;;;0.93;;
81242;SDS011;70716;50.074;14.496;2023-12-20T06:41:26;1.98;;;0.73;;
81242;SDS011;70716;50.074;14.496;2023-12-20T06:43:53;0.80;;;0.52;;
81242;SDS011;70716;50.074;14.496;2023-12-20T06:46:18;2.10;;;0.88;;
81242;SDS011;70716;50.074;14.496;2023-12-20T06:48:44;1.10;;;0.82;;
81242;SDS011;70716;50.074;14.496;2023-12-20T06:51:14;1.13;;;0.43;;
81242;SDS011;70716;50.074;14.496;2023-12-20T06:53:40;1.17;;;0.65;;
81242;SDS011;70716;50.074;14.496;2023-12-20T06:56:06;1.10;;;0.25;;
81242;SDS011;70716;50.074;14.496;2023-12-20T06:58:32;0.63;;;0.50;;
81242;SDS011;70716;50.074;14.496;2023-12-20T07:00:57;1.00;;;0.63;;
81242;SDS011;70716;50.074;14.496;2023-12-20T07:03:23;1.27;;;0.95;;
81242;SDS011;70716;50.074;14.496;2023-12-20T07:05:49;0.28;;;0.17;;
81242;SDS011;70716;50.074;14.496;2023-12-20T07:08:14;1.02;;;0.43;;
81242;SDS011;70716;50.074;14.496;2023-12-20T07:10:41;0.30;;;0.10;;
81242;SDS011;70716;50.074;14.496;2023-12-20T07:13:06;0.63;;;0.45;;
81242;SDS011;70716;50.074;14.496;2023-12-20T07:15:32;0.55;;;0.47;;
81242;SDS011;70716;50.074;14.496;2023-12-20T07:18:01;0.85;;;0.50;;
81242;SDS011;70716;50.074;14.496;2023-12-20T07:20:27;1.02;;;0.43;;
81242;SDS011;70716;50.074;14.496;2023-12-20T07:22:52;2.55;;;0.88;;
81242;SDS011;70716;50.074;14.496;2023-12-20T07:25:17;1.02;;;0.73;;
81242;SDS011;70716;50.074;14.496;2023-12-20T07:27:43;1.50;;;0.98;;
81242;SDS011;70716;50.074;14.496;2023-12-20T07:30:08;0.30;;;0.25;;
81242;SDS011;70716;50.074;14.496;2023-12-20T07:32:34;0.43;;;0.35;;
81242;SDS011;70716;50.074;14.496;2023-12-20T07:34:59;0.68;;;0.52;;
81242;SDS011;70716;50.074;14.496;2023-12-20T07:37:25;0.85;;;0.38;;
81242;SDS011;70716;50.074;14.496;2023-12-20T07:39:50;0.38;;;0.32;;
81242;SDS011;70716;50.074;14.496;2023-12-20T07:42:16;0.30;;;0.30;;
81242;SDS011;70716;50.074;14.496;2023-12-20T07:44:45;1.15;;;0.73;;
81242;SDS011;70716;50.074;14.496;2023-12-20T07:47:10;0.13;;;0.13;;
81242;SDS011;70716;50.074;14.496;2023-12-20T07:49:40;0.52;;;0.38;;
81242;SDS011;70716;50.074;14.496;2023-12-20T07:52:06;0.63;;;0.35;;
81242;SDS011;70716;50.074;14.496;2023-12-20T07:54:31;0.50;;;0.17;;
81242;SDS011;70716;50.074;14.496;2023-12-20T07:56:57;0.32;;;0.30;;
81242;SDS011;70716;50.074;14.496;2023-12-20T07:59:25;0.40;;;0.40;;
81242;SDS011;70716;50.074;14.496;2023-12-20T08:01:50;0.30;;;0.30;;
81242;SDS011;70716;50.074;14.496;2023-12-20T08:04:15;1.20;;;0.35;;
81242;SDS011;70716;50.074;14.496;2023-12-20T08:06:41;1.90;;;0.80;;
81242;SDS011;70716;50.074;14.496;2023-12-20T08:09:09;0.45;;;0.32;;
81242;SDS011;70716;50.074;14.496;2023-12-20T08:11:35;0.80;;;0.40;;
81242;SDS011;70716;50.074;14.496;2023-12-20T08:14:00;0.08;;;0.08;;
81242;SDS011;70716;50.074;14.496;2023-12-20T08:16:26;0.38;;;0.30;;
81242;SDS011;70716;50.074;14.496;2023-12-20T08:18:51;1.27;;;0.88;;
81242;SDS011;70716;50.074;14.496;2023-12-20T08:21:17;0.68;;;0.28;;
81242;SDS011;70716;50.074;14.496;2023-12-20T08:23:45;0.75;;;0.50;;
81242;SDS011;70716;50.074;14.496;2023-12-20T08:26:19;1.50;;;0.30;;
81242;SDS011;70716;50.074;14.496;2023-12-20T08:28:48;0.77;;;0.40;;
81242;SDS011;70716;50.074;14.496;2023-12-20T08:31:16;0.65;;;0.40;;
81242;SDS011;70716;50.074;14.496;2023-12-20T08:33:43;0.45;;;0.45;;
81242;SDS011;70716;50.074;14.496;2023-12-20T08:36:10;0.25;;;0.15;;
81242;SDS011;70716;50.074;14.496;2023-12-20T08:38:35;0.63;;;0.38;;
81242;SDS011;70716;50.074;14.496;2023-12-20T08:41:01;0.93;;;0.60;;
81242;SDS011;70716;50.074;14.496;2023-12-20T08:43:35;0.88;;;0.63;;
81242;SDS011;70716;50.074;14.496;2023-12-20T08:46:01;0.30;;;0.22;;
81242;SDS011;70716;50.074;14.496;2023-12-20T08:48:27;0.30;;;0.20;;
81242;SDS011;70716;50.074;14.496;2023-12-20T08:50:53;1.08;;;0.70;;
81242;SDS011;70716;50.074;14.496;2023-12-20T08:53:19;0.60;;;0.38;;
81242;SDS011;70716;50.074;14.496;2023-12-20T08:55:46;0.47;;;0.40;;
81242;SDS011;70716;50.074;14.496;2023-12-20T08:58:14;1.25;;;0.70;;
81242;SDS011;70716;50.074;14.496;2023-12-20T09:00:40;2.75;;;0.60;;
81242;SDS011;70716;50.074;14.496;2023-12-20T09:03:05;0.45;;;0.32;;
81242;SDS011;70716;50.074;14.496;2023-12-20T09:05:31;0.90;;;0.60;;
81242;SDS011;70716;50.074;14.496;2023-12-20T09:07:56;1.13;;;0.50;;
81242;SDS011;70716;50.074;14.496;2023-12-20T09:10:22;0.77;;;0.77;;
81242;SDS011;70716;50.074;14.496;2023-12-20T09:12:48;0.30;;;0.10;;
81242;SDS011;70716;50.074;14.496;2023-12-20T09:15:14;2.03;;;1.20;;
81242;SDS011;70716;50.074;14.496;2023-12-20T09:17:43;0.80;;;0.47;;
81242;SDS011;70716;50.074;14.496;2023-12-20T09:20:09;0.52;;;0.13;;
81242;SDS011;70716;50.074;14.496;2023-12-20T09:22:35;0.25;;;0.25;;
81242;SDS011;70716;50.074;14.496;2023-12-20T09:25:03;1.27;;;0.13;;
81242;SDS011;70716;50.074;14.496;2023-12-20T09:27:32;1.45;;;0.65;;
81242;SDS011;70716;50.074;14.496;2023-12-20T09:29:57;0.05;;;0.03;;
81242;SDS011;70716;50.074;14.496;2023-12-20T09:32:23;0.43;;;0.40;;
81242;SDS011;70716;50.074;14.496;2023-12-20T09:34:48;0.73;;;0.52;;
81242;SDS011;70716;50.074;14.496;2023-12-20T09:37:14;0.32;;;0.10;;
81242;SDS011;70716;50.074;14.496;2023-12-20T09:39:39;1.98;;;0.40;;
81242;SDS011;70716;50.074;14.496;2023-12-20T09:42:09;0.93;;;0.45;;
81242;SDS011;70716;50.074;14.496;2023-12-20T09:44:37;0.35;;;0.35;;
81242;SDS011;70716;50.074;14.496;2023-12-20T09:47:05;1.13;;;0.38;;
81242;SDS011;70716;50.074;14.496;2023-12-20T09:49:32;0.82;;;0.52;;
81242;SDS011;70716;50.074;14.496;2023-12-20T09:51:58;0.93;;;0.73;;
81242;SDS011;70716;50.074;14.496;2023-12-20T09:54:25;0.30;;;0.30;;
81242;SDS011;70716;50.074;14.496;2023-12-20T09:56:53;1.15;;;0.40;;
81242;SDS011;70716;50.074;14.496;2023-12-20T09:59:19;1.98;;;0.50;;
81242;SDS011;70716;50.074;14.496;2023-12-20T10:01:44;1.08;;;0.75;;
81242;SDS011;70716;50.074;14.496;2023-12-20T10:04:10;1.10;;;0.65;;
81242;SDS011;70716;50.074;14.496;2023-12-20T10:09:06;0.52;;;0.28;;
81242;SDS011;70716;50.074;14.496;2023-12-20T10:11:32;0.32;;;0.20;;
81242;SDS011;70716;50.074;14.496;2023-12-20T10:14:00;0.10;;;0.10;;
81242;SDS011;70716;50.074;14.496;2023-12-20T10:16:26;1.30;;;0.52;;
81242;SDS011;70716;50.074;14.496;2023-12-20T10:18:55;0.20;;;0.20;;
81242;SDS011;70716;50.074;14.496;2023-12-20T10:21:22;0.20;;;0.20;;
81242;SDS011;70716;50.074;14.496;2023-12-20T10:23:51;0.50;;;0.50;;
81242;SDS011;70716;50.074;14.496;2023-12-20T10:26:21;1.10;;;0.20;;
81242;SDS011;70716;50.074;14.496;2023-12-20T10:28:52;0.00;;;0.00;;
81242;SDS011;70716;50.074;14.496;2023-12-20T10:31:29;0.20;;;0.20;;
81242;SDS011;70716;50.074;14.496;2023-12-20T10:33:56;0.30;;;0.30;;
81242;SDS011;70716;50.074;14.496;2023-12-20T10:38:49;0.17;;;0.10;;
81242;SDS011;70716;50.074;14.496;2023-12-20T10:41:17;1.13;;;0.70;;
81242;SDS011;70716;50.074;14.496;2023-12-20T10:43:48;0.28;;;0.22;;
81242;SDS011;70716;50.074;14.496;2023-12-20T10:46:18;0.20;;;0.10;;
81242;SDS011;70716;50.074;14.496;2023-12-20T10:48:44;2.00;;;0.28;;
81242;SDS011;70716;50.074;14.496;2023-12-20T10:51:11;1.95;;;0.35;;
81242;SDS011;70716;50.074;14.496;2023-12-20T10:53:45;1.15;;;0.40;;
81242;SDS011;70716;50.074;14.496;2023-12-20T10:56:15;0.60;;;0.30;;
81242;SDS011;70716;50.074;14.496;2023-12-20T10:58:43;0.75;;;0.50;;
81242;SDS011;70716;50.074;14.496;2023-12-20T11:01:09;0.45;;;0.25;;
81242;SDS011;70716;50.074;14.496;2023-12-20T11:03:38;0.20;;;0.10;;
81242;SDS011;70716;50.074;14.496;2023-12-20T11:06:18;0.17;;;0.15;;
81242;SDS011;70716;50.074;14.496;2023-12-20T11:08:47;0.60;;;0.30;;
81242;SDS011;70716;50.074;14.496;2023-12-20T11:11:27;0.55;;;0.20;;
81242;SDS011;70716;50.074;14.496;2023-12-20T11:14:02;0.35;;;0.30;;
81242;SDS011;70716;50.074;14.496;2023-12-20T11:16:31;1.27;;;0.52;;
81242;SDS011;70716;50.074;14.496;2023-12-20T11:18:57;0.13;;;0.13;;
81242;SDS011;70716;50.074;14.496;2023-12-20T11:21:29;0.57;;;0.50;;
81242;SDS011;70716;50.074;14.496;2023-12-20T11:23:55;0.60;;;0.35;;
81242;SDS011;70716;50.074;14.496;2023-12-20T11:26:27;1.20;;;0.52;;
81242;SDS011;70716;50.074;14.496;2023-12-20T11:28:53;1.35;;;0.60;;
81242;SDS011;70716;50.074;14.496;2023-12-20T11:31:41;0.20;;;0.20;;
81242;SDS011;70716;50.074;14.496;2023-12-20T11:34:13;1.00;;;0.40;;
81242;SDS011;70716;50.074;14.496;2023-12-20T11:36:39;1.95;;;0.52;;
81242;SDS011;70716;50.074;14.496;2023-12-20T11:39:06;0.30;;;0.30;;
81242;SDS011;70716;50.074;14.496;2023-12-20T11:41:33;0.50;;;0.40;;
81242;SDS011;70716;50.074;14.496;2023-12-20T11:44:00;2.58;;;0.57;;
81242;SDS011;70716;50.074;14.496;2023-12-20T11:48:51;1.30;;;0.30;;
81242;SDS011;70716;50.074;14.496;2023-12-20T11:51:19;0.70;;;0.43;;
81242;SDS011;70716;50.074;14.496;2023-12-20T11:53:44;0.82;;;0.40;;
81242;SDS011;70716;50.074;14.496;2023-12-20T11:56:13;0.28;;;0.28;;
81242;SDS011;70716;50.074;14.496;2023-12-20T11:58:38;1.25;;;0.50;;
81242;SDS011;70716;50.074;14.496;2023-12-20T12:01:04;0.40;;;0.40;;
81242;SDS011;70716;50.074;14.496;2023-12-20T12:03:32;0.70;;;0.32;;
81242;SDS011;70716;50.074;14.496;2023-12-20T12:05:57;0.93;;;0.10;;
81242;SDS011;70716;50.074;14.496;2023-12-20T12:08:23;1.25;;;0.60;;
81242;SDS011;70716;50.074;14.496;2023-12-20T12:10:48;0.15;;;0.15;;
81242;SDS011;70716;50.074;14.496;2023-12-20T12:13:14;0.63;;;0.38;;
81242;SDS011;70716;50.074;14.496;2023-12-20T12:15:40;0.35;;;0.32;;
81242;SDS011;70716;50.074;14.496;2023-12-20T12:18:07;0.32;;;0.32;;
81242;SDS011;70716;50.074;14.496;2023-12-20T12:20:33;1.45;;;0.40;;
81242;SDS011;70716;50.074;14.496;2023-12-20T12:25:24;1.17;;;0.65;;
81242;SDS011;70716;50.074;14.496;2023-12-20T12:27:50;9.13;;;0.50;;
81242;SDS011;70716;50.074;14.496;2023-12-20T12:30:16;0.63;;;0.38;;
81242;SDS011;70716;50.074;14.496;2023-12-20T12:32:46;1.33;;;0.88;;
81242;SDS011;70716;50.074;14.496;2023-12-20T12:35:11;1.17;;;0.40;;
81242;SDS011;70716;50.074;14.496;2023-12-20T12:37:37;0.85;;;0.30;;
81242;SDS011;70716;50.074;14.496;2023-12-20T12:40:09;0.43;;;0.40;;
81242;SDS011;70716;50.074;14.496;2023-12-20T12:42:36;1.27;;;0.30;;
81242;SDS011;70716;50.074;14.496;2023-12-20T12:45:02;0.43;;;0.25;;
81242;SDS011;70716;50.074;14.496;2023-12-20T12:47:27;5.20;;;1.17;;
81242;SDS011;70716;50.074;14.496;2023-12-20T12:49:54;5.05;;;0.50;;
81242;SDS011;70716;50.074;14.496;2023-12-20T12:52:20;0.22;;;0.22;;
81242;SDS011;70716;50.074;14.496;2023-12-20T12:54:45;1.80;;;0.93;;
81242;SDS011;70716;50.074;14.496;2023-12-20T12:57:13;0.60;;;0.50;;
81242;SDS011;70716;50.074;14.496;2023-12-20T12:59:42;0.98;;;0.30;;
81242;SDS011;70716;50.074;14.496;2023-12-20T13:02:13;0.77;;;0.40;;
81242;SDS011;70716;50.074;14.496;2023-12-20T13:04:39;0.50;;;0.50;;
81242;SDS011;70716;50.074;14.496;2023-12-20T13:07:06;0.55;;;0.43;;
81242;SDS011;70716;50.074;14.496;2023-12-20T13:09:31;1.90;;;0.60;;
81242;SDS011;70716;50.074;14.496;2023-12-20T13:11:56;1.17;;;0.90;;
81242;SDS011;70716;50.074;14.496;2023-12-20T13:14:25;1.40;;;0.68;;
81242;SDS011;70716;50.074;14.496;2023-12-20T13:16:50;0.52;;;0.40;;
81242;SDS011;70716;50.074;14.496;2023-12-20T13:19:16;0.90;;;0.90;;
81242;SDS011;70716;50.074;14.496;2023-12-20T13:21:41;0.77;;;0.30;;
81242;SDS011;70716;50.074;14.496;2023-12-20T13:24:07;1.80;;;1.00;;
81242;SDS011;70716;50.074;14.496;2023-12-20T13:26:32;5.18;;;0.52;;
81242;SDS011;70716;50.074;14.496;2023-12-20T13:28:58;0.65;;;0.50;;
81242;SDS011;70716;50.074;14.496;2023-12-20T13:31:23;0.38;;;0.30;;
81242;SDS011;70716;50.074;14.496;2023-12-20T13:33:52;4.93;;;0.28;;
81242;SDS011;70716;50.074;14.496;2023-12-20T13:36:18;0.40;;;0.28;;
81242;SDS011;70716;50.074;14.496;2023-12-20T13:38:44;0.20;;;0.20;;
81242;SDS011;70716;50.074;14.496;2023-12-20T13:41:09;1.17;;;0.70;;
81242;SDS011;70716;50.074;14.496;2023-12-20T13:43:36;1.23;;;0.85;;
81242;SDS011;70716;50.074;14.496;2023-12-20T13:46:04;0.82;;;0.55;;
81242;SDS011;70716;50.074;14.496;2023-12-20T13:48:31;0.20;;;0.20;;
81242;SDS011;70716;50.074;14.496;2023-12-20T13:50:56;0.32;;;0.30;;
81242;SDS011;70716;50.074;14.496;2023-12-20T13:53:22;0.50;;;0.38;;
81242;SDS011;70716;50.074;14.496;2023-12-20T13:55:47;0.15;;;0.13;;
81242;SDS011;70716;50.074;14.496;2023-12-20T13:58:12;0.30;;;0.28;;
81242;SDS011;70716;50.074;14.496;2023-12-20T14:00:38;0.38;;;0.30;;
81242;SDS011;70716;50.074;14.496;2023-12-20T14:03:04;0.95;;;0.40;;
81242;SDS011;70716;50.074;14.496;2023-12-20T14:05:29;0.17;;;0.17;;
81242;SDS011;70716;50.074;14.496;2023-12-20T14:07:55;0.85;;;0.38;;
81242;SDS011;70716;50.074;14.496;2023-12-20T14:10:22;0.10;;;0.10;;
81242;SDS011;70716;50.074;14.496;2023-12-20T14:12:48;0.05;;;0.05;;
81242;SDS011;70716;50.074;14.496;2023-12-20T14:15:13;0.25;;;0.25;;
81242;SDS011;70716;50.074;14.496;2023-12-20T14:17:40;1.08;;;0.55;;
81242;SDS011;70716;50.074;14.496;2023-12-20T14:20:08;0.77;;;0.40;;
81242;SDS011;70716;50.074;14.496;2023-12-20T14:22:38;0.00;;;0.00;;
81242;SDS011;70716;50.074;14.496;2023-12-20T14:25:10;3.15;;;0.30;;
81242;SDS011;70716;50.074;14.496;2023-12-20T14:30:02;1.80;;;0.22;;
81242;SDS011;70716;50.074;14.496;2023-12-20T14:32:27;0.43;;;0.28;;
81242;SDS011;70716;50.074;14.496;2023-12-20T14:34:53;6.72;;;0.52;;
81242;SDS011;70716;50.074;14.496;2023-12-20T14:37:20;4.38;;;0.88;;
81242;SDS011;70716;50.074;14.496;2023-12-20T14:39:45;1.35;;;0.32;;
81242;SDS011;70716;50.074;14.496;2023-12-20T14:42:11;1.05;;;0.52;;